createdAt,value
2022-11-05T00:17:08.974Z,97.3
2022-11-05T00:37:08.947Z,97.2
2022-11-05T00:57:08.891Z,97.6
2022-11-05T01:57:08.816Z,97.8
2022-11-05T02:36:56.743Z,97.7
2022-11-05T02:56:56.774Z,97.6
2022-11-05T03:37:08.565Z,97.6
2022-11-05T03:57:15.566Z,97.7
2022-11-05T04:37:08.457Z,98
2022-11-05T04:56:56.574Z,98.1
2022-11-05T05:36:56.470Z,98.1
2022-11-05T05:56:56.341Z,98.2
2022-11-05T06:17:15.396Z,98.3
2022-11-05T06:36:56.350Z,98.3
2022-11-05T07:36:56.145Z,97.9
2022-11-05T07:56:56.250Z,97.1
2022-11-05T08:16:56.125Z,92.8
2022-11-05T08:36:56.054Z,84.2
2022-11-05T08:57:02.989Z,82.1
2022-11-05T09:17:14.961Z,75.5
2022-11-05T09:56:55.872Z,72
2022-11-05T10:16:55.810Z,72.2
2022-11-05T10:37:07.748Z,69.4
2022-11-05T10:56:55.813Z,71.2
2022-11-05T11:16:55.685Z,72.9
2022-11-05T11:37:10.532Z,71
2022-11-05T12:16:55.632Z,70.1
2022-11-05T12:37:02.478Z,67.3
2022-11-05T12:57:00.426Z,65.6
2022-11-05T13:17:07.402Z,67.9
2022-11-05T13:37:00.342Z,65.4
2022-11-05T13:57:00.416Z,64.9
2022-11-05T14:17:14.265Z,64.6
2022-11-05T14:37:00.228Z,66.9
2022-11-05T14:57:14.194Z,69
2022-11-05T15:17:07.139Z,73.4
2022-11-05T15:37:07.107Z,77
2022-11-05T16:17:00.011Z,83.3
2022-11-05T16:36:59.975Z,86.3
2022-11-05T16:57:13.951Z,88.2
2022-11-05T17:16:59.926Z,89.2
2022-11-05T17:57:01.949Z,90.3
2022-11-05T18:16:59.878Z,91.5
2022-11-05T18:56:59.731Z,90.6
2022-11-05T19:16:59.740Z,92.4
2022-11-05T19:37:13.680Z,93.3
2022-11-05T19:57:13.646Z,93.8
2022-11-05T20:37:01.638Z,94.5
2022-11-05T21:36:59.569Z,95.8
2022-11-05T21:56:59.470Z,96
2022-11-05T22:17:08.484Z,95.9
2022-11-05T22:36:59.419Z,96
2022-11-05T22:57:13.442Z,96.8
2022-11-05T23:17:01.408Z,96.9
2022-11-05T23:37:01.394Z,97.2
